createdAt,value
2022-09-07T00:01:00.344Z,96.62
2022-09-07T00:06:10.499Z,96.40
2022-09-07T00:11:15.814Z,96.06
2022-09-07T00:16:28.484Z,96.72
2022-09-07T00:21:31.572Z,96.98
2022-09-07T00:26:33.245Z,97.54
2022-09-07T00:31:35.569Z,97.77
2022-09-07T00:36:37.452Z,97.95
2022-09-07T00:41:39.588Z,98.19
2022-09-07T00:46:41.496Z,98.04
2022-09-07T00:51:57.987Z,97.67
2022-09-07T00:57:00.405Z,97.54
2022-09-07T01:02:02.596Z,97.71
2022-09-07T01:07:08.019Z,97.78
2022-09-07T01:12:09.733Z,98.26
2022-09-07T01:17:39.478Z,98.35
2022-09-07T01:22:53.967Z,98.46
2022-09-07T01:28:22.877Z,98.44
2022-09-07T01:33:35.908Z,98.50
2022-09-07T01:38:56.783Z,98.26
2022-09-07T01:44:22.941Z,98.28
2022-09-07T01:49:40.796Z,99.01
2022-09-07T01:54:50.343Z,99.33
2022-09-07T01:59:57.381Z,99.52
2022-09-07T02:05:10.279Z,99.37
2022-09-07T02:10:27.579Z,99.68
2022-09-07T02:15:47.144Z,99.94
2022-09-07T02:20:53.385Z,100.00
2022-09-07T02:26:10.664Z,100.00
2022-09-07T02:31:12.479Z,100.00
2022-09-07T02:36:17.726Z,100.00
2022-09-07T02:41:41.938Z,100.00
2022-09-07T02:47:10.298Z,100.00
2022-09-07T02:52:55.932Z,100.00
2022-09-07T02:58:24.345Z,100.00
2022-09-07T03:03:32.202Z,100.00
2022-09-07T03:08:43.549Z,100.00
2022-09-07T03:13:45.445Z,100.00
2022-09-07T03:18:50.283Z,100.00
2022-09-07T03:23:53.310Z,100.00
2022-09-07T03:28:55.724Z,100.00
2022-09-07T03:33:57.651Z,100.00
2022-09-07T03:38:59.612Z,100.00
2022-09-07T03:44:05.277Z,100.00
2022-09-07T03:49:07.065Z,100.00
2022-09-07T03:54:08.882Z,100.00
2022-09-07T04:04:49.399Z,100.00
2022-09-07T04:21:50.549Z,100.00
2022-09-07T04:26:54.651Z,100.00
2022-09-07T04:31:56.388Z,100.00
2022-09-07T04:36:58.159Z,100.00
2022-09-07T04:42:00.082Z,100.00
2022-09-07T04:47:01.904Z,100.00
2022-09-07T05:24:15.125Z,99.32
2022-09-07T05:49:42.929Z,95.36
2022-09-07T05:55:26.221Z,94.13
2022-09-07T06:00:27.304Z,93.64
2022-09-07T06:05:29.072Z,94.17
2022-09-07T06:15:44.107Z,93.02
2022-09-07T06:20:46.097Z,93.00
2022-09-07T06:25:49.325Z,91.60
2022-09-07T06:30:51.110Z,90.40
2022-09-07T06:36:03.511Z,90.12
2022-09-07T06:51:50.412Z,85.25
2022-09-07T06:56:52.256Z,82.91
2022-09-07T07:01:54.070Z,81.76
2022-09-07T07:06:55.883Z,80.42
2022-09-07T07:11:57.723Z,78.81
2022-09-07T07:16:59.524Z,77.10
2022-09-07T07:22:14.304Z,75.71
2022-09-07T07:27:23.227Z,74.94
2022-09-07T07:32:24.979Z,74.67
2022-09-07T07:37:28.277Z,72.82
2022-09-07T07:42:30.263Z,73.75
2022-09-07T07:47:32.296Z,72.89
2022-09-07T07:58:01.687Z,72.62
2022-09-07T08:03:03.414Z,71.01
2022-09-07T08:08:05.381Z,68.30
2022-09-07T08:13:10.666Z,68.15
2022-09-07T08:18:32.347Z,67.89
2022-09-07T08:23:47.678Z,66.69
2022-09-07T08:28:49.434Z,66.46
2022-09-07T08:33:51.283Z,66.04
2022-09-07T08:38:53.705Z,65.57
2022-09-07T08:44:20.555Z,64.17
2022-09-07T08:49:48.656Z,64.69
2022-09-07T08:55:14.346Z,64.60
2022-09-07T09:00:36.356Z,63.78
2022-09-07T09:06:37.260Z,63.23
2022-09-07T09:12:17.544Z,61.94
2022-09-07T09:17:25.062Z,61.54
2022-09-07T09:22:28.572Z,60.71
2022-09-07T09:27:30.237Z,60.23
2022-09-07T09:32:35.875Z,59.84
2022-09-07T09:37:39.905Z,58.92
2022-09-07T09:42:41.821Z,58.27
2022-09-07T09:47:49.606Z,57.97
2022-09-07T09:52:52.833Z,57.64
2022-09-07T10:08:57.922Z,56.19
2022-09-07T10:13:59.718Z,56.11
2022-09-07T10:19:01.560Z,55.71
2022-09-07T10:24:06.234Z,54.99
2022-09-07T10:29:24.922Z,54.21
2022-09-07T10:34:52.245Z,53.27
2022-09-07T10:40:17.042Z,54.40
2022-09-07T10:45:36.875Z,54.57
2022-09-07T10:50:53.610Z,55.38
2022-09-07T10:56:04.403Z,53.12
2022-09-07T11:01:34.518Z,54.53
2022-09-07T11:06:48.278Z,53.60
2022-09-07T11:12:04.715Z,51.23
2022-09-07T11:17:14.332Z,51.93
2022-09-07T11:22:42.289Z,51.69
2022-09-07T11:28:09.359Z,51.31
2022-09-07T11:33:39.120Z,49.61
2022-09-07T11:39:11.652Z,49.31
2022-09-07T11:44:21.823Z,49.29
2022-09-07T11:49:26.060Z,48.54
2022-09-07T11:54:45.847Z,47.48
2022-09-07T12:10:58.219Z,45.93
2022-09-07T12:36:31.500Z,43.58
2022-09-07T12:41:47.869Z,42.82
2022-09-07T12:47:11.206Z,42.58
2022-09-07T12:52:39.872Z,41.44
2022-09-07T12:58:16.795Z,42.16
2022-09-07T13:09:13.611Z,42.74
2022-09-07T13:14:27.923Z,42.89
2022-09-07T13:19:50.915Z,41.59
2022-09-07T13:24:54.491Z,41.31
2022-09-07T13:30:01.674Z,39.72
2022-09-07T13:35:05.408Z,38.77
2022-09-07T13:40:10.945Z,38.97
2022-09-07T13:45:49.385Z,37.99
2022-09-07T14:21:55.890Z,37.59
2022-09-07T14:27:07.770Z,37.01
2022-09-07T14:32:14.511Z,37.49
2022-09-07T14:43:36.824Z,37.35
2022-09-07T14:48:40.276Z,38.05
2022-09-07T14:54:07.402Z,38.31
2022-09-07T14:59:40.578Z,38.22
2022-09-07T15:05:16.384Z,38.44
2022-09-07T15:10:37.009Z,38.48
2022-09-07T15:15:41.645Z,38.93
2022-09-07T15:20:45.041Z,39.27
2022-09-07T15:25:53.658Z,39.30
2022-09-07T15:36:17.630Z,40.08
2022-09-07T15:41:23.961Z,40.67
2022-09-07T15:46:27.303Z,40.89
2022-09-07T16:13:01.508Z,43.38
2022-09-07T16:18:04.625Z,44.15
2022-09-07T16:23:15.845Z,44.77
2022-09-07T16:28:18.395Z,45.48
2022-09-07T16:33:20.272Z,47.16
2022-09-07T16:43:44.121Z,51.70
2022-09-07T16:48:46.017Z,53.73
2022-09-07T16:53:53.844Z,55.79
2022-09-07T16:59:01.838Z,57.73
2022-09-07T17:04:09.809Z,59.90
2022-09-07T17:09:14.617Z,63.48
2022-09-07T17:14:16.622Z,66.56
2022-09-07T17:19:33.647Z,69.48
2022-09-07T17:24:35.568Z,72.05
2022-09-07T17:29:43.646Z,73.94
2022-09-07T17:35:00.522Z,76.72
2022-09-07T17:40:05.815Z,79.11
2022-09-07T17:45:08.359Z,80.37
2022-09-07T17:50:30.407Z,81.62
2022-09-07T17:55:52.427Z,83.12
2022-09-07T18:01:11.445Z,83.89
2022-09-07T18:06:14.892Z,84.36
2022-09-07T18:16:41.491Z,87.15
2022-09-07T18:21:43.849Z,88.52
2022-09-07T18:26:52.206Z,89.51
2022-09-07T18:31:55.147Z,91.48
2022-09-07T18:36:58.456Z,92.95
2022-09-07T18:42:01.581Z,93.88
2022-09-07T18:47:03.848Z,94.63
2022-09-07T18:57:36.498Z,94.42
2022-09-07T19:02:38.547Z,94.98
2022-09-07T19:07:40.585Z,95.52
2022-09-07T19:12:45.662Z,95.92
2022-09-07T19:17:51.785Z,96.46
2022-09-07T19:22:53.498Z,97.56
2022-09-07T19:27:55.695Z,98.06
2022-09-07T19:33:02.094Z,98.49
2022-09-07T19:38:06.085Z,98.48
2022-09-07T19:43:07.904Z,98.35
2022-09-07T19:48:09.751Z,99.21
2022-09-07T19:53:11.694Z,100.00
2022-09-07T19:58:13.742Z,100.00
2022-09-07T20:03:15.449Z,100.00
2022-09-07T20:08:17.225Z,100.00
2022-09-07T20:13:19.340Z,100.00
2022-09-07T20:18:22.386Z,100.00
2022-09-07T20:23:24.173Z,100.00
2022-09-07T20:28:26.277Z,100.00
2022-09-07T20:33:31.269Z,100.00
2022-09-07T20:38:42.761Z,100.00
2022-09-07T20:43:44.650Z,100.00
2022-09-07T20:48:46.424Z,100.00
2022-09-07T20:54:03.396Z,100.00
2022-09-07T20:59:12.500Z,100.00
2022-09-07T21:04:14.391Z,100.00
2022-09-07T21:09:16.246Z,100.00
2022-09-07T21:14:19.249Z,100.00
2022-09-07T21:19:21.127Z,100.00
2022-09-07T21:24:23.327Z,100.00
2022-09-07T21:29:45.440Z,100.00
2022-09-07T21:35:00.822Z,100.00
2022-09-07T21:40:10.736Z,100.00
2022-09-07T21:45:12.589Z,100.00
2022-09-07T21:50:14.584Z,100.00
2022-09-07T21:55:16.626Z,100.00
2022-09-07T22:00:38.487Z,100.00
2022-09-07T22:05:53.824Z,100.00
2022-09-07T22:11:03.658Z,100.00
2022-09-07T22:16:09.743Z,100.00
2022-09-07T22:21:26.939Z,100.00
2022-09-07T22:26:31.712Z,100.00
2022-09-07T22:31:35.774Z,100.00
2022-09-07T22:36:42.011Z,100.00
2022-09-07T22:41:44.824Z,100.00
2022-09-07T22:46:47.125Z,100.00
2022-09-07T22:51:49.133Z,100.00
2022-09-07T22:56:50.919Z,100.00
2022-09-07T23:01:52.667Z,100.00
2022-09-07T23:06:54.465Z,100.00
2022-09-07T23:11:56.158Z,100.00
2022-09-07T23:17:16.841Z,100.00
2022-09-07T23:22:18.614Z,100.00
2022-09-07T23:27:20.572Z,100.00
2022-09-07T23:32:22.340Z,100.00
2022-09-07T23:37:24.149Z,100.00
2022-09-07T23:42:25.873Z,100.00
2022-09-07T23:47:27.671Z,100.00
2022-09-07T23:52:29.722Z,100.00
2022-09-07T23:57:31.626Z,100.00
